Flight Track Log - Related Links

Times and Time Zones

All times are in EDT time to prevent confusion due to time zone crossing. See the N411AJ flight status page for this flight to view local times or setup timezone preferences in your user account.

Time Position Orientation Groundspeed Altitude Reporting Facility
EDT Latitude Longitude Course Direction KTS MPH feet Rate Location/Type
Thu 06:45:23 PM 39.6167 -104.8667 333° Northwest 221 254 7,900  Level Denver TRACON
Thu 06:46:18 PM 39.6667 -104.9000 333° Northwest 290 334 8,000 1,266 Climbing Denver TRACON
Thu 06:47:12 PM 39.7333 -104.9500 330° Northwest 284 327 10,200 3,429 Climbing Denver TRACON
Thu 06:48:10 PM 39.7506 -105.0561 282° West 321 369 14,400 4,750 Climbing Denver Center
Thu 06:49:12 PM 39.7158 -105.1658 248° West 332 382 19,700 4,500 Climbing Denver Center
Thu 06:50:14 PM 39.6728 -105.2839 245° Southwest 329 379 23,700 3,339 Climbing Denver Center
Thu 06:51:16 PM 39.6314 -105.4014 245° Southwest 354 407 26,600 2,516 Climbing Denver Center
Thu 06:52:18 PM 39.5869 -105.5244 245° Southwest 376 433 28,900 2,177 Climbing Denver Center
Thu 06:53:20 PM 39.5417 -105.6539 246° West 395 455 31,100 2,226 Climbing Denver Center
Thu 06:54:22 PM 39.5061 -105.7842 251° West 390 449 33,500 2,544 Climbing Denver Center
Thu 06:55:25 PM 39.4642 -105.9392 251° West 379 436 36,400 2,352 Climbing Denver Center
Thu 06:56:27 PM 39.4306 -106.0606 250° West 365 420 38,400 1,500 Climbing Denver Center
Thu 06:57:29 PM 39.3950 -106.1836 250° West 366 421 39,500 1,065 Climbing Denver Center
Thu 06:58:31 PM 39.3569 -106.3239 251° West 370 426 40,600 968 Climbing Denver Center
Thu 06:59:33 PM 39.3214 -106.4464 249° West 374 430 41,500 1,161 Climbing Denver Center
Thu 07:00:35 PM 39.2797 -106.5881 249° West 377 434 43,000 726 Climbing Denver Center
Thu 07:01:37 PM 39.2461 -106.7089 250° West 376 433 43,000  Level Denver Center
Thu 07:02:39 PM 39.1708 -106.8144 227° Southwest 410 472 43,000  Level Denver Center
Thu 07:03:41 PM 39.0792 -106.9311 225° Southwest 414 476 43,000  Level Denver Center
Thu 07:04:44 PM 39.0050 -107.0289 226° Southwest 407 468 43,000  Level Denver Center
Thu 07:05:46 PM 38.9156 -107.1444 225° Southwest 405 466 43,000  Level Denver Center
Thu 07:06:48 PM 38.8403 -107.2431 226° Southwest 405 466 43,000  Level Denver Center
Thu 07:07:49 PM 38.7767 -107.3236 225° Southwest 405 466 43,000  Level Denver Center
Thu 07:08:52 PM 38.6778 -107.4528 226° Southwest 397 457 43,000  Level Denver Center
Thu 07:09:54 PM 38.5900 -107.5642 225° Southwest 397 457 43,000  Level Denver Center
Thu 07:10:56 PM 38.5147 -107.6614 225° Southwest 398 458 43,000  Level Denver Center
Thu 07:11:58 PM 38.4264 -107.7739 225° Southwest 401 461 43,000  Level Denver Center
Thu 07:13:00 PM 38.3503 -107.8694 225° Southwest 399 459 43,000  Level Denver Center
Thu 07:14:02 PM 38.2628 -107.9806 225° Southwest 399 459 43,000  Level Denver Center
Thu 07:15:04 PM 38.1867 -108.0739 224° Southwest 398 458 43,000  Level Denver Center
Thu 07:16:06 PM 38.1131 -108.1694 226° Southwest 395 455 43,000  Level Denver Center
Thu 07:17:09 PM 38.0306 -108.2692 224° Southwest 389 448 43,000  Level Denver Center
Thu 07:18:11 PM 37.9442 -108.3739 224° Southwest 388 447 43,000  Level Denver Center
Thu 07:19:13 PM 37.8700 -108.4683 225° Southwest 389 448 43,000  Level Denver Center
Thu 07:20:15 PM 37.7833 -108.5789 225° Southwest 394 453 43,000  Level Denver Center
Thu 07:21:17 PM 37.7081 -108.6717 224° Southwest 395 455 43,000  Level Denver Center
Thu 07:22:19 PM 37.6211 -108.7800 225° Southwest 392 451 43,000  Level Denver Center
Thu 07:23:21 PM 37.5458 -108.8683 223° Southwest 389 448 43,000  Level Denver Center
Thu 07:24:23 PM 37.4575 -108.9767 224° Southwest 393 452 43,000  Level Denver Center
Thu 07:25:25 PM 37.3819 -109.0672 224° Southwest 393 452 43,000  Level Denver Center
Thu 07:26:27 PM 37.2933 -109.1758 224° Southwest 395 455 43,000  Level Denver Center
Thu 07:27:29 PM 37.2181 -109.2678 224° Southwest 395 455 43,000  Level Denver Center
Thu 07:28:31 PM 37.1297 -109.3742 224° Southwest 395 455 43,000  Level Denver Center
Thu 07:29:34 PM 37.0542 -109.4639 223° Southwest 395 455 43,000  Level Denver Center
Thu 07:30:36 PM 36.9661 -109.5722 225° Southwest 395 455 43,000  Level Denver Center
Thu 07:31:38 PM 36.8906 -109.6603 223° Southwest 394 453 43,000  Level Denver Center
Thu 07:32:40 PM 36.8019 -109.7650 223° Southwest 393 452 43,000  Level Denver Center
Thu 07:33:42 PM 36.7261 -109.8550 224° Southwest 393 452 43,000  Level Denver Center
Thu 07:34:44 PM 36.6367 -109.9619 224° Southwest 397 457 43,000  Level Denver Center
Thu 07:35:46 PM 36.5594 -110.0522 223° Southwest 397 457 43,000  Level Denver Center
Thu 07:36:48 PM 36.4950 -110.1272 223° Southwest 398 458 43,000 -919 Level Denver Center
Thu 07:37:50 PM 36.3897 -110.2522 224° Southwest 397 457 41,100 -1,887 Descending Denver Center
Thu 07:38:52 PM 36.3108 -110.3436 223° Southwest 393 452 39,100 -1,935 Descending Denver Center
Thu 07:39:54 PM 36.2336 -110.4333 223° Southwest 387 445 37,100 -1,809 Descending Denver Center
Thu 07:41:08 PM 36.1539 -110.5261 223° Southwest 387 445 35,000 -1,358 Descending Denver Center
Thu 07:42:11 PM 36.0547 -110.6414 223° Southwest 400 460 34,000 -480 Descending Denver Center
Thu 07:43:13 PM 35.9722 -110.7375 223° Southwest 404 465 34,000  Level Denver Center
Thu 07:44:15 PM 35.8711 -110.8533 223° Southwest 407 468 34,000  Level Denver Center
Thu 07:45:17 PM 35.7869 -110.9486 223° Southwest 408 470 34,000  Level Denver Center
Thu 07:46:19 PM 35.7031 -111.0453 223° Southwest 409 471 34,000 -545 Level Denver Center
Thu 07:47:18 PM 35.6131 -111.1161 213° Southwest 401 461 32,900 -1,636 Descending Albuquerque Center
Thu 07:48:20 PM 35.4864 -111.1814 203° Southwest 427 491 30,700 -1,839 Descending Albuquerque Center
Thu 07:49:22 PM 35.3819 -111.2433 206° Southwest 434 499 29,100 -823 Descending Albuquerque Center
Thu 07:50:24 PM 35.2664 -111.3133 206° Southwest 442 509 29,000 -97 Descending Albuquerque Center
Thu 07:51:26 PM 35.1547 -111.3792 206° Southwest 445 512 28,900 -968 Descending Albuquerque Center
Thu 07:52:28 PM 35.0450 -111.4425 205° Southwest 442 509 27,000 -2,081 Descending Albuquerque Center
Thu 07:53:30 PM 34.9094 -111.5197 205° Southwest 444 511 24,600 -2,129 Descending Albuquerque Center
Thu 07:54:32 PM 34.7981 -111.5836 205° Southwest 446 513 22,600 -1,935 Descending Albuquerque Center
Thu 07:55:34 PM 34.6903 -111.6467 206° Southwest 437 503 20,600 -1,935 Descending Albuquerque Center
Thu 07:56:36 PM 34.5819 -111.7064 204° Southwest 432 497 18,600 -1,887 Descending Albuquerque Center
Thu 07:57:38 PM 34.4778 -111.7661 205° Southwest 421 484 16,700 -1,742 Descending Albuquerque Center
Thu 07:58:40 PM 34.3775 -111.8225 205° Southwest 406 467 15,000 -1,839 Descending Albuquerque Center
Thu 07:59:42 PM 34.2675 -111.8839 205° Southwest 373 429 12,900 -1,548 Descending Albuquerque Center
Thu 08:00:44 PM 34.1933 -111.9219 203° Southwest 299 344 11,800 -1,113 Descending Albuquerque Center
Thu 08:01:46 PM 34.1214 -111.9189 178° South 260 299 10,600 -1,210 Descending Albuquerque Center
Thu 08:02:48 PM 34.0444 -111.9108 175° South 276 318 9,300 -1,403 Descending Albuquerque Center
Thu 08:03:50 PM 33.9519 -111.9028 176° South 284 327 7,700 -1,392 Descending Albuquerque Center
Thu 08:04:53 PM 33.8781 -111.8969 176° South 274 315 6,400 -1,200 Descending Albuquerque Center
Thu 08:05:55 PM 33.8089 -111.8911 176° South 255 293 5,200 -1,161 Descending Albuquerque Center
Thu 08:06:57 PM 33.7467 -111.8858 176° South 229 264 4,000 -1,016 Descending Albuquerque Center
Thu 08:07:59 PM 33.6925 -111.8808 176° South 204 235 3,100 -919 Descending Albuquerque Center
Thu 08:09:01 PM 33.6444 -111.8844 184° South 170 196 2,100 -726 Descending Albuquerque Center
Thu 08:10:03 PM 33.6203 -111.9158 227° Southwest 158 182 1,600 -484 Descending Albuquerque Center

Login

Don't have an account? Register now (free) for customized features, flight alerts, and more!